Time;durP1;ratioP1;P1;durP2;ratioP2;P2;SDS_P1;SDS_P2;PMS_P1;PMS_P2;Temp;Humidity;BMP_temperature;BMP_pressure;BME280_temperature;BME280_humidity;BME280_pressure;Samples;Min_cycle;Max_cycle;Signal;HPM_P1;HPM_P2
2022/05/01 00:02:15;;;;;;;19.27;13.13;;;5.20;99.90;;;;;;5069734;28;20091;-44
2022/05/01 00:04:40;;;;;;;19.02;12.98;;;5.20;99.90;;;;;;5070017;28;20036;-46
2022/05/01 00:07:07;;;;;;;18.90;12.82;;;5.30;99.90;;;;;;5069686;28;20044;-45
2022/05/01 00:09:33;;;;;;;20.63;14.20;;;5.30;99.90;;;;;;5069903;28;20479;-46
2022/05/01 00:11:59;;;;;;;18.85;13.05;;;5.30;99.90;;;;;;5069930;28;20551;-45
2022/05/01 00:14:25;;;;;;;16.77;12.20;;;5.30;99.90;;;;;;5069842;28;20047;-46
2022/05/01 00:16:50;;;;;;;18.45;13.75;;;5.30;99.90;;;;;;5069820;28;20127;-46
2022/05/01 00:19:17;;;;;;;16.80;12.70;;;5.40;99.90;;;;;;5068522;28;20689;-46
2022/05/01 00:21:42;;;;;;;16.95;12.43;;;5.40;99.90;;;;;;5069706;28;20052;-45
2022/05/01 00:24:08;;;;;;;18.83;13.02;;;5.40;99.90;;;;;;5069638;28;20044;-45
2022/05/01 00:26:34;;;;;;;19.60;12.00;;;5.50;99.90;;;;;;5069756;28;20044;-45
2022/05/01 00:29:06;;;;;;;15.43;11.63;;;5.60;99.90;;;;;;5069087;28;20036;-45
2022/05/01 00:31:31;;;;;;;14.43;10.47;;;5.50;99.90;;;;;;5067064;28;20438;-45
2022/05/01 00:36:44;;;;;;;19.50;12.93;;;5.60;99.90;;;;;;5069064;28;20105;-45
2022/05/01 00:39:10;;;;;;;19.02;14.38;;;5.50;99.90;;;;;;5068787;28;20060;-46
2022/05/01 00:41:37;;;;;;;22.27;15.43;;;5.60;99.90;;;;;;5069318;28;20174;-45
2022/05/01 00:44:11;;;;;;;23.95;17.00;;;5.60;99.90;;;;;;5069213;28;20056;-46
2022/05/01 00:46:39;;;;;;;21.60;16.50;;;5.70;99.90;;;;;;5069381;28;20391;-47
2022/05/01 00:49:09;;;;;;;24.77;15.98;;;5.70;99.90;;;;;;5069553;28;20540;-45
2022/05/01 00:51:41;;;;;;;21.23;14.77;;;5.70;99.90;;;;;;5069472;28;20076;-45
2022/05/01 00:54:07;;;;;;;21.53;16.57;;;5.70;99.90;;;;;;5069159;28;20160;-46
2022/05/01 00:56:40;;;;;;;23.08;15.88;;;5.70;99.90;;;;;;5068700;28;20063;-45
2022/05/01 00:59:06;;;;;;;20.55;15.15;;;5.80;99.90;;;;;;5068734;28;20040;-45
2022/05/01 01:01:33;;;;;;;22.45;16.75;;;6.40;99.90;;;;;;5069077;28;20087;-47
2022/05/01 01:03:59;;;;;;;21.52;15.90;;;5.80;99.90;;;;;;5068965;28;20044;-46
2022/05/01 01:06:25;;;;;;;24.10;17.30;;;5.80;99.90;;;;;;5069154;28;20136;-46
2022/05/01 01:08:51;;;;;;;25.80;17.02;;;5.90;99.90;;;;;;5068804;28;20040;-45
2022/05/01 01:11:17;;;;;;;23.60;17.17;;;5.80;99.90;;;;;;5068894;28;20048;-45
2022/05/01 01:13:45;;;;;;;26.85;17.98;;;5.80;99.90;;;;;;5068818;28;20041;-46
2022/05/01 01:16:11;;;;;;;25.80;17.13;;;5.70;99.90;;;;;;5068713;28;20098;-45
2022/05/01 01:18:39;;;;;;;22.45;17.02;;;5.90;99.90;;;;;;5068764;28;20502;-46
2022/05/01 01:21:07;;;;;;;23.25;16.60;;;6.20;99.90;;;;;;5068645;28;20045;-46
2022/05/01 01:23:33;;;;;;;23.70;16.75;;;5.80;99.90;;;;;;5068412;28;20590;-45
2022/05/01 01:25:59;;;;;;;23.52;17.50;;;5.80;99.90;;;;;;5068593;28;20181;-45
2022/05/01 01:28:25;;;;;;;23.63;16.25;;;5.80;99.90;;;;;;5068580;28;20498;-45
2022/05/01 01:33:36;;;;;;;20.73;16.27;;;5.80;99.90;;;;;;5075380;28;20043;-46
2022/05/01 01:36:03;;;;;;;22.63;16.48;;;5.80;99.90;;;;;;5075217;28;20044;-46
2022/05/01 01:38:30;;;;;;;24.63;17.05;;;5.80;99.90;;;;;;5075066;28;20060;-46
2022/05/01 01:40:58;;;;;;;23.85;17.65;;;6.80;99.90;;;;;;5075155;28;20075;-44
2022/05/01 01:43:29;;;;;;;20.90;15.65;;;6.20;99.90;;;;;;5075203;28;20096;-45
2022/05/01 01:45:56;;;;;;;21.08;15.88;;;5.90;99.90;;;;;;5075526;28;20040;-45
2022/05/01 01:48:23;;;;;;;22.98;17.40;;;5.60;99.90;;;;;;5074891;28;20493;-45
2022/05/01 01:50:58;;;;;;;25.02;16.77;;;5.60;99.90;;;;;;5074467;28;20513;-44
2022/05/01 01:53:25;;;;;;;24.85;16.90;;;5.70;99.90;;;;;;5074713;28;20036;-44
2022/05/01 01:55:51;;;;;;;26.15;18.10;;;5.60;99.90;;;;;;5074400;28;20051;-44
2022/05/01 01:58:18;;;;;;;25.83;17.70;;;5.60;99.90;;;;;;5074165;28;20119;-47
2022/05/01 02:00:44;;;;;;;23.70;18.13;;;5.60;99.90;;;;;;5074848;28;20228;-45
2022/05/01 02:03:10;;;;;;;22.63;17.45;;;5.60;99.90;;;;;;5074946;28;20123;-45
2022/05/01 02:05:36;;;;;;;22.73;18.00;;;5.60;99.90;;;;;;5074952;28;20469;-45
2022/05/01 02:08:03;;;;;;;24.88;18.02;;;5.50;99.90;;;;;;5073051;28;20057;-45
2022/05/01 02:10:28;;;;;;;28.15;18.20;;;5.60;99.90;;;;;;5074626;28;20032;-44
2022/05/01 02:12:54;;;;;;;24.63;18.90;;;5.50;99.90;;;;;;5074721;28;20052;-46
2022/05/01 02:15:20;;;;;;;24.50;17.70;;;5.30;99.90;;;;;;5074638;28;20048;-45
2022/05/01 02:17:49;;;;;;;25.20;17.35;;;5.40;99.90;;;;;;5074987;28;20048;-46
2022/05/01 02:20:15;;;;;;;26.17;18.75;;;5.90;99.90;;;;;;5074512;28;20051;-46
2022/05/01 02:22:42;;;;;;;26.98;19.58;;;5.40;99.90;;;;;;5074610;28;20044;-45
2022/05/01 02:25:09;;;;;;;28.83;19.80;;;5.40;99.90;;;;;;5073948;28;20448;-46
2022/05/01 02:27:36;;;;;;;27.90;21.00;;;6.30;99.90;;;;;;5074074;28;20053;-44
2022/05/01 02:30:02;;;;;;;33.65;22.13;;;5.40;99.90;;;;;;5074223;28;20049;-45
2022/05/01 02:32:29;;;;;;;27.83;20.98;;;5.40;99.90;;;;;;5074412;28;20419;-46
2022/05/01 02:34:55;;;;;;;25.75;19.73;;;5.30;99.90;;;;;;5075081;28;20464;-46
2022/05/01 02:37:21;;;;;;;23.85;19.17;;;5.30;99.90;;;;;;5074977;28;20044;-46
2022/05/01 02:39:46;;;;;;;25.33;19.50;;;5.30;99.90;;;;;;5074753;28;20064;-45
2022/05/01 02:42:13;;;;;;;25.10;18.25;;;5.20;99.90;;;;;;5072438;28;20046;-46
2022/05/01 02:44:39;;;;;;;27.52;17.88;;;5.10;99.90;;;;;;5071652;28;20044;-46
2022/05/01 02:47:05;;;;;;;28.73;18.38;;;5.10;99.90;;;;;;5071543;28;20041;-46
2022/05/01 02:49:31;;;;;;;28.50;19.92;;;5.00;99.90;;;;;;5071184;28;20040;-45
2022/05/01 02:51:58;;;;;;;30.05;20.92;;;5.10;99.90;;;;;;5071140;28;20051;-47
2022/05/01 02:54:24;;;;;;;28.35;20.40;;;5.10;99.90;;;;;;5070903;28;20423;-45
2022/05/01 02:56:50;;;;;;;28.98;21.10;;;5.40;99.90;;;;;;5070819;28;20119;-46
2022/05/01 02:59:20;;;;;;;26.13;20.60;;;5.10;99.90;;;;;;5070861;28;20139;-46
2022/05/01 03:01:45;;;;;;;27.58;20.35;;;4.90;99.90;;;;;;5070749;28;20097;-46
2022/05/01 03:04:11;;;;;;;28.50;19.92;;;4.90;99.90;;;;;;5070633;28;20446;-46
2022/05/01 03:06:37;;;;;;;30.25;20.10;;;4.60;99.90;;;;;;5070649;28;20094;-46
2022/05/01 03:09:04;;;;;;;25.90;19.40;;;5.30;99.90;;;;;;5071171;28;20040;-45
2022/05/01 03:11:32;;;;;;;31.10;20.08;;;4.70;99.90;;;;;;5070787;28;20043;-46
2022/05/01 03:13:58;;;;;;;32.65;21.35;;;4.70;99.90;;;;;;5070777;28;20040;-44
2022/05/01 03:16:24;;;;;;;28.58;20.45;;;4.60;99.90;;;;;;5070735;28;20032;-46
2022/05/01 03:24:18;;;;;;;37.42;23.25;;;4.20;99.90;;;;;;5070706;28;20619;-45
2022/05/01 03:26:47;;;;;;;31.63;22.67;;;4.10;99.90;;;;;;5070659;28;20048;-46
2022/05/01 03:29:14;;;;;;;34.70;23.20;;;4.80;99.90;;;;;;5070249;28;20110;-46
2022/05/01 03:31:40;;;;;;;39.72;24.00;;;4.10;99.90;;;;;;5069418;28;20028;-45
2022/05/01 03:34:07;;;;;;;34.92;21.73;;;4.10;99.90;;;;;;5070184;28;20036;-45
2022/05/01 03:36:33;;;;;;;31.40;20.92;;;4.10;99.90;;;;;;5070183;28;20040;-45
2022/05/01 03:39:01;;;;;;;29.15;20.23;;;;;;;;;;5070202;28;20056;-46
2022/05/01 03:41:27;;;;;;;29.88;20.50;;;3.90;99.90;;;;;;5070145;28;20052;-45
2022/05/01 03:43:53;;;;;;;28.02;20.23;;;4.00;99.90;;;;;;5070508;28;20044;-49
2022/05/01 03:46:20;;;;;;;31.92;19.70;;;3.80;99.90;;;;;;5069927;28;20124;-49
2022/05/01 03:48:49;;;;;;;26.73;19.00;;;3.50;99.90;;;;;;5070101;28;20475;-49
2022/05/01 03:51:15;;;;;;;32.15;21.20;;;3.30;99.90;;;;;;5069629;28;20122;-49
2022/05/01 03:53:41;;;;;;;34.40;20.98;;;3.20;99.90;;;;;;5069223;28;20083;-49
2022/05/01 03:56:07;;;;;;;30.23;19.40;;;3.10;99.90;;;;;;5051762;28;20147;-44
2022/05/01 03:58:33;;;;;;;29.13;20.38;;;3.10;99.90;;;;;;5069525;28;20155;-44
2022/05/01 04:00:59;;;;;;;28.83;20.05;;;3.00;99.90;;;;;;5069581;28;20045;-44
2022/05/01 04:03:25;;;;;;;29.13;20.30;;;2.90;99.90;;;;;;5069841;28;20040;-45
2022/05/01 04:05:51;;;;;;;28.88;18.30;;;2.80;99.90;;;;;;5069464;28;20048;-45
2022/05/01 04:08:17;;;;;;;24.05;17.42;;;2.70;99.90;;;;;;5069257;28;20044;-45
2022/05/01 04:10:44;;;;;;;20.83;15.68;;;2.70;99.90;;;;;;5069823;28;20501;-45
2022/05/01 04:13:12;;;;;;;17.83;12.95;;;2.80;99.90;;;;;;5069441;28;20053;-46
2022/05/01 04:15:38;;;;;;;16.85;13.13;;;2.80;99.90;;;;;;5069419;28;20589;-45
2022/05/01 04:18:05;;;;;;;19.75;13.90;;;2.60;99.90;;;;;;5069394;28;20113;-45
2022/05/01 04:20:32;;;;;;;19.55;14.13;;;2.70;99.90;;;;;;5068774;28;20103;-45
2022/05/01 04:22:59;;;;;;;17.20;12.85;;;2.50;99.90;;;;;;5069178;28;20742;-44
2022/05/01 04:25:26;;;;;;;16.05;12.88;;;2.60;99.90;;;;;;5069059;28;20087;-45
2022/05/01 04:28:02;;;;;;;27.30;17.30;;;2.60;99.90;;;;;;5069041;28;20047;-45
2022/05/01 04:30:31;;;;;;;31.17;18.60;;;2.40;99.90;;;;;;5068911;28;20036;-45
2022/05/01 04:32:59;;;;;;;28.83;17.30;;;2.60;99.90;;;;;;5069308;28;20112;-45
2022/05/01 04:35:30;;;;;;;25.73;17.90;;;2.50;99.90;;;;;;5069128;28;20094;-45
2022/05/01 04:38:00;;;;;;;25.67;17.10;;;2.70;99.90;;;;;;5068963;28;20140;-45
2022/05/01 04:40:40;;;;;;;24.45;17.70;;;2.60;99.90;;;;;;5068703;28;20517;-46
2022/05/01 04:43:20;;;;;;;19.98;14.70;;;2.60;99.90;;;;;;5069378;28;20151;-45
2022/05/01 04:45:48;;;;;;;26.27;17.38;;;2.80;99.90;;;;;;5068884;28;20044;-45
2022/05/01 04:48:14;;;;;;;29.38;17.67;;;2.70;99.90;;;;;;5068758;28;20093;-45
2022/05/01 04:50:40;;;;;;;26.90;18.08;;;2.60;99.90;;;;;;5068728;28;20427;-45
2022/05/01 04:53:12;;;;;;;24.15;17.23;;;2.90;99.90;;;;;;5068703;28;20570;-45
2022/05/01 04:55:39;;;;;;;23.15;17.67;;;2.90;99.90;;;;;;5068835;28;20083;-45
2022/05/01 04:58:05;;;;;;;23.98;18.67;;;3.10;99.90;;;;;;5068845;28;20552;-45
2022/05/01 05:00:31;;;;;;;24.35;17.90;;;3.20;99.90;;;;;;5069071;28;20041;-45
2022/05/01 05:02:57;;;;;;;26.50;18.58;;;3.50;99.90;;;;;;5069125;28;20380;-46
2022/05/01 05:05:24;;;;;;;22.40;18.15;;;3.50;99.90;;;;;;5068291;28;20055;-45
2022/05/01 05:07:49;;;;;;;23.85;17.83;;;3.50;99.90;;;;;;5068880;28;20048;-44
2022/05/01 05:10:16;;;;;;;22.30;17.27;;;3.70;99.90;;;;;;5068863;28;20495;-45
2022/05/01 05:12:44;;;;;;;23.30;18.55;;;3.80;99.90;;;;;;5068325;28;20549;-44
2022/05/01 05:15:14;;;;;;;23.42;18.33;;;4.20;99.90;;;;;;5068628;28;20070;-45
2022/05/01 05:17:40;;;;;;;19.58;16.48;;;5.00;99.90;;;;;;5068452;28;20054;-45
2022/05/01 05:20:07;;;;;;;17.52;14.95;;;6.30;99.90;;;;;;5068965;28;20182;-46
2022/05/01 05:22:33;;;;;;;14.88;12.65;;;6.90;99.90;;;;;;5068468;28;20118;-46
2022/05/01 05:24:59;;;;;;;16.35;13.95;;;7.40;99.90;;;;;;5068952;28;20088;-45
2022/05/01 05:27:27;;;;;;;13.40;11.45;;;7.90;99.90;;;;;;5068494;28;20131;-47
2022/05/01 05:29:57;;;;;;;14.80;12.52;;;8.90;99.90;;;;;;5068776;28;20036;-47
2022/05/01 05:32:24;;;;;;;13.07;11.68;;;10.10;99.90;;;;;;5067946;28;20372;-46
2022/05/01 05:34:51;;;;;;;13.57;11.73;;;10.90;99.90;;;;;;5068241;28;20041;-46
2022/05/01 05:37:18;;;;;;;12.65;10.50;;;11.50;99.90;;;;;;5068513;28;20051;-48
2022/05/01 05:39:44;;;;;;;11.98;10.30;;;12.60;99.90;;;;;;5068520;28;20065;-46
2022/05/01 05:42:11;;;;;;;12.82;10.27;;;13.20;99.90;;;;;;5068599;28;20048;-48
2022/05/01 05:44:37;;;;;;;14.40;9.88;;;14.50;99.90;;;;;;5068594;28;20052;-46
2022/05/01 05:47:04;;;;;;;10.90;9.45;;;15.20;99.90;;;;;;5068538;28;20037;-50
2022/05/01 05:49:31;;;;;;;13.80;10.43;;;16.10;96.00;;;;;;5068301;28;20124;-48
2022/05/01 05:51:58;;;;;;;15.05;10.02;;;16.60;97.50;;;;;;5068456;28;20043;-47
2022/05/01 05:54:24;;;;;;;13.68;10.52;;;17.40;94.50;;;;;;5068712;28;20119;-47
2022/05/01 05:56:49;;;;;;;22.20;11.25;;;18.30;92.10;;;;;;5068381;28;20119;-47
2022/05/01 05:59:16;;;;;;;21.23;10.15;;;18.90;89.20;;;;;;5068247;28;20164;-47
2022/05/01 06:01:42;;;;;;;16.27;10.25;;;19.70;88.60;;;;;;5067546;28;20074;-49
2022/05/01 06:04:07;;;;;;;14.75;10.55;;;20.00;87.70;;;;;;5068096;28;20041;-49
2022/05/01 06:06:34;;;;;;;11.68;10.30;;;20.50;83.90;;;;;;5067637;28;20048;-48
2022/05/01 06:09:00;;;;;;;14.52;11.45;;;21.00;83.00;;;;;;5067933;28;20049;-51
2022/05/01 06:11:26;;;;;;;12.13;8.25;;;21.40;72.50;;;;;;5067911;28;20479;-47
2022/05/01 06:13:52;;;;;;;12.85;10.35;;;21.40;72.80;;;;;;5068039;28;20290;-48
2022/05/01 06:16:18;;;;;;;9.93;8.07;;;21.20;71.20;;;;;;5068159;28;20040;-47
2022/05/01 06:18:44;;;;;;;9.80;8.23;;;20.90;71.10;;;;;;5071059;28;20045;-47
2022/05/01 06:21:11;;;;;;;10.30;7.72;;;21.00;70.70;;;;;;5072101;28;20208;-47
2022/05/01 06:23:38;;;;;;;10.68;8.27;;;21.40;69.60;;;;;;5071643;28;20510;-47
2022/05/01 06:26:05;;;;;;;10.48;8.68;;;21.40;68.50;;;;;;5072077;28;20040;-49
2022/05/01 06:28:31;;;;;;;9.90;8.85;;;21.50;67.70;;;;;;5071974;28;20040;-48
2022/05/01 06:30:58;;;;;;;9.82;8.77;;;21.80;66.00;;;;;;5071843;28;20707;-47
2022/05/01 06:33:24;;;;;;;9.18;7.88;;;22.20;64.90;;;;;;5071985;28;20553;-47
2022/05/01 06:35:52;;;;;;;10.27;7.90;;;22.90;63.70;;;;;;5071738;28;20047;-47
2022/05/01 06:38:18;;;;;;;8.68;7.78;;;23.60;62.40;;;;;;5071026;28;20591;-47
2022/05/01 06:40:44;;;;;;;10.52;7.63;;;24.30;61.20;;;;;;5071324;28;20044;-48
2022/05/01 06:43:11;;;;;;;12.02;8.20;;;24.90;59.20;;;;;;5071569;28;20394;-49
2022/05/01 06:45:37;;;;;;;7.88;7.07;;;25.20;57.00;;;;;;5071062;28;20051;-49
2022/05/01 06:48:03;;;;;;;7.68;6.15;;;25.30;55.50;;;;;;5071193;28;20591;-51
2022/05/01 06:50:30;;;;;;;8.43;6.22;;;25.20;54.70;;;;;;5071359;28;20087;-48
2022/05/01 06:52:56;;;;;;;8.40;7.45;;;24.80;54.40;;;;;;5071157;28;20094;-50
2022/05/01 06:55:25;;;;;;;8.80;6.90;;;24.60;54.50;;;;;;5071276;28;20048;-47
2022/05/01 06:57:51;;;;;;;9.18;6.75;;;24.30;54.00;;;;;;5070576;28;20487;-48
2022/05/01 07:00:17;;;;;;;7.18;6.00;;;24.40;53.30;;;;;;5071222;28;20055;-48
2022/05/01 07:02:48;;;;;;;5.13;3.00;;;23.90;53.60;;;;;;5070745;28;20044;-47
2022/05/01 07:05:14;;;;;;;4.35;3.20;;;23.80;51.90;;;;;;5071042;28;20034;-49
2022/05/01 07:07:40;;;;;;;7.22;4.75;;;24.30;53.00;;;;;;5070552;28;20371;-49
2022/05/01 07:10:07;;;;;;;7.75;5.70;;;24.80;52.40;;;;;;5071179;28;20100;-48
2022/05/01 07:12:33;;;;;;;6.90;4.13;;;25.60;51.40;;;;;;5071054;28;20048;-48
2022/05/01 07:14:59;;;;;;;8.30;6.15;;;26.20;49.80;;;;;;5070476;28;20043;-48
2022/05/01 07:17:24;;;;;;;8.13;6.95;;;26.70;48.90;;;;;;5070173;28;20048;-50
2022/05/01 07:19:50;;;;;;;7.53;6.80;;;26.90;48.20;;;;;;5070569;28;20052;-48
2022/05/01 07:22:19;;;;;;;7.78;6.82;;;27.00;47.80;;;;;;5070371;28;20074;-47
2022/05/01 07:24:45;;;;;;;8.52;6.45;;;27.20;47.10;;;;;;5070162;28;20511;-49
2022/05/01 07:27:10;;;;;;;6.20;3.60;;;27.60;47.70;;;;;;5070301;28;20036;-49
2022/05/01 07:29:36;;;;;;;6.00;3.90;;;27.90;46.70;;;;;;5069920;28;20032;-49
2022/05/01 07:32:02;;;;;;;6.07;4.30;;;27.60;45.70;;;;;;5068040;28;20105;-49
2022/05/01 07:34:28;;;;;;;6.07;4.15;;;27.50;45.60;;;;;;5070524;28;20056;-48
2022/05/01 07:36:54;;;;;;;6.38;4.68;;;26.90;44.70;;;;;;5070481;28;20040;-49
2022/05/01 07:39:20;;;;;;;9.35;5.30;;;26.70;45.20;;;;;;5070008;28;20396;-50
2022/05/01 07:41:47;;;;;;;7.13;4.45;;;26.80;45.70;;;;;;5070327;28;20192;-48
2022/05/01 07:44:13;;;;;;;4.85;3.30;;;27.40;45.90;;;;;;5070467;28;20052;-48
2022/05/01 07:46:39;;;;;;;5.07;4.43;;;27.60;44.30;;;;;;5070316;28;20044;-49
2022/05/01 07:49:08;;;;;;;5.35;4.25;;;28.10;43.80;;;;;;5069722;28;20066;-51
2022/05/01 07:51:35;;;;;;;5.55;3.97;;;27.90;42.40;;;;;;5070028;28;20540;-50
2022/05/01 07:54:01;;;;;;;5.38;4.07;;;28.40;43.00;;;;;;5069507;28;20501;-48
2022/05/01 07:56:28;;;;;;;6.82;4.55;;;29.20;43.20;;;;;;5070167;28;20439;-48
2022/05/01 07:58:54;;;;;;;6.15;3.97;;;29.90;41.90;;;;;;5069634;28;20032;-49
2022/05/01 08:01:21;;;;;;;5.65;4.38;;;30.10;40.80;;;;;;5070061;28;20044;-50
2022/05/01 08:06:32;;;;;;;8.68;4.63;;;30.80;40.90;;;;;;5069726;28;20106;-51
2022/05/01 08:08:58;;;;;;;5.18;3.97;;;31.00;40.20;;;;;;5069434;28;20432;-49
2022/05/01 08:11:24;;;;;;;5.55;3.92;;;31.20;39.70;;;;;;5069209;28;20076;-51
2022/05/01 08:13:49;;;;;;;5.60;3.80;;;31.40;40.00;;;;;;5068900;28;20098;-49
2022/05/01 08:16:17;;;;;;;5.60;3.35;;;31.50;40.60;;;;;;5069069;28;20044;-48
2022/05/01 08:21:31;;;;;;;5.00;3.20;;;28.40;40.00;;;;;;5069375;28;20056;-48
2022/05/01 08:23:57;;;;;;;3.88;2.70;;;26.20;41.30;;;;;;5069203;28;20044;-48
2022/05/01 08:26:23;;;;;;;3.53;2.08;;;24.60;42.60;;;;;;5069608;28;20451;-47
2022/05/01 08:28:52;;;;;;;4.07;1.95;;;23.30;43.90;;;;;;5069032;28;20064;-48
2022/05/01 08:31:18;;;;;;;3.28;2.08;;;22.20;44.40;;;;;;5068913;28;20145;-47
2022/05/01 08:33:44;;;;;;;5.68;3.28;;;21.30;45.30;;;;;;5068715;28;20040;-48
2022/05/01 08:36:10;;;;;;;4.93;2.80;;;20.90;46.40;;;;;;5069217;28;20487;-48
2022/05/01 08:38:37;;;;;;;4.22;3.15;;;20.20;46.80;;;;;;5068896;28;20135;-48
2022/05/01 08:41:03;;;;;;;4.20;3.08;;;20.40;47.30;;;;;;5068293;28;20067;-47
2022/05/01 08:43:29;;;;;;;4.07;3.13;;;21.30;47.30;;;;;;5068555;28;20565;-48
2022/05/01 08:46:16;;;;;;;6.50;3.03;;;21.20;46.80;;;;;;5068986;28;20045;-48
2022/05/01 08:49:00;;;;;;;4.00;2.97;;;20.70;47.70;;;;;;5068874;28;20106;-46
2022/05/01 08:51:30;;;;;;;3.67;2.90;;;21.80;48.20;;;;;;5069391;28;20044;-48
2022/05/01 08:53:58;;;;;;;4.72;3.03;;;23.50;47.30;;;;;;5069261;28;20033;-48
2022/05/01 08:56:25;;;;;;;4.90;2.88;;;25.40;45.70;;;;;;5068865;28;20044;-48
2022/05/01 08:58:52;;;;;;;4.15;2.72;;;26.60;43.20;;;;;;5068412;28;20052;-50
2022/05/01 09:01:18;;;;;;;3.97;2.72;;;27.30;41.80;;;;;;5068924;28;20102;-48
2022/05/01 09:03:45;;;;;;;4.32;2.28;;;28.00;40.50;;;;;;5068751;28;20084;-48
2022/05/01 09:06:11;;;;;;;3.72;2.08;;;28.40;40.40;;;;;;5068533;28;20051;-48
2022/05/01 09:08:38;;;;;;;6.43;2.85;;;28.60;39.40;;;;;;5067927;28;20402;-49
2022/05/01 09:13:48;;;;;;;3.05;2.08;;;28.90;39.30;;;;;;5068613;28;20054;-48
2022/05/01 09:16:14;;;;;;;3.92;1.98;;;28.80;39.30;;;;;;5068156;28;20119;-49
2022/05/01 09:18:47;;;;;;;4.18;2.03;;;28.30;39.40;;;;;;5068364;28;20054;-48
2022/05/01 09:21:13;;;;;;;3.72;2.38;;;28.40;38.90;;;;;;5066857;28;20380;-49
2022/05/01 09:23:40;;;;;;;4.35;2.40;;;29.00;39.50;;;;;;5068379;28;20044;-50
2022/05/01 09:26:10;;;;;;;6.65;2.22;;;29.40;38.20;;;;;;5068303;28;20467;-49
2022/05/01 09:28:37;;;;;;;6.07;2.47;;;28.80;37.40;;;;;;5067458;28;20556;-48
2022/05/01 09:31:06;;;;;;;4.90;2.35;;;28.20;37.40;;;;;;5067822;28;20032;-49
2022/05/01 09:33:32;;;;;;;3.83;2.25;;;27.90;37.80;;;;;;5068605;28;20086;-50
2022/05/01 09:35:58;;;;;;;4.93;2.90;;;27.50;38.50;;;;;;5068520;28;20113;-48
2022/05/01 09:38:26;;;;;;;3.92;2.67;;;26.40;38.30;;;;;;5067734;28;20495;-48
2022/05/01 09:40:57;;;;;;;3.85;2.30;;;25.30;39.00;;;;;;5067909;28;20044;-48
2022/05/01 09:43:36;;;;;;;;;;;24.50;40.70;;;;;;5068895;28;20395;-49
2022/05/01 09:46:11;;;;;;;8.52;3.00;;;24.30;41.90;;;;;;5068178;28;19916;-48
2022/05/01 09:48:37;;;;;;;3.25;2.20;;;25.00;41.60;;;;;;5067973;28;20399;-47
2022/05/01 09:51:19;;;;;;;3.85;2.70;;;25.00;41.20;;;;;;5068868;28;20044;-48
2022/05/01 09:53:46;;;;;;;2.55;1.80;;;24.50;41.50;;;;;;5072358;28;20048;-47
2022/05/01 09:56:12;;;;;;;4.93;2.28;;;23.90;42.00;;;;;;5071874;28;20119;-48
2022/05/01 09:58:40;;;;;;;3.95;2.47;;;23.80;42.80;;;;;;5072020;28;20048;-49
2022/05/01 10:01:16;;;;;;;5.13;2.53;;;23.60;42.30;;;;;;5071710;28;20200;-47
2022/05/01 10:03:46;;;;;;;3.97;2.22;;;23.70;42.80;;;;;;5087543;28;20055;-47
2022/05/01 10:06:16;;;;;;;5.60;2.05;;;24.10;43.30;;;;;;5071442;28;20047;-47
2022/05/01 10:08:43;;;;;;;4.10;2.58;;;24.10;42.80;;;;;;5070806;28;20084;-47
2022/05/01 10:11:14;;;;;;;4.22;2.08;;;23.90;42.70;;;;;;5071530;28;20087;-48
2022/05/01 10:13:40;;;;;;;4.78;2.45;;;23.60;48.90;;;;;;5071933;28;20037;-47
2022/05/01 10:16:09;;;;;;;4.68;2.22;;;23.00;43.50;;;;;;5071690;28;20142;-48
2022/05/01 10:18:36;;;;;;;3.72;2.20;;;22.60;44.20;;;;;;5071461;28;20048;-50
2022/05/01 10:21:03;;;;;;;5.88;2.30;;;22.40;45.60;;;;;;5071599;28;20193;-49
2022/05/01 10:23:29;;;;;;;6.05;3.13;;;22.10;45.10;;;;;;5071588;28;20483;-48
2022/05/01 10:26:16;;;;;;;2.30;1.70;;;21.80;45.10;;;;;;5071438;28;20041;-47
2022/05/01 10:28:50;;;;;;;4.28;1.92;;;21.30;46.30;;;;;;5071611;28;20063;-50
2022/05/01 10:34:43;;;;;;;3.88;1.90;;;20.20;47.80;;;;;;5070764;28;20048;-49
2022/05/01 10:37:17;;;;;;;4.40;2.60;;;19.60;48.40;;;;;;5070883;28;20040;-46
2022/05/01 10:39:43;;;;;;;4.00;2.67;;;19.20;49.20;;;;;;5071328;28;20048;-46
2022/05/01 10:42:09;;;;;;;4.10;2.50;;;19.00;49.00;;;;;;5071026;28;20044;-50
2022/05/01 10:44:36;;;;;;;4.15;2.25;;;18.70;48.60;;;;;;5071309;28;20464;-47
2022/05/01 10:47:12;;;;;;;5.07;2.20;;;18.50;49.00;;;;;;5070934;28;20060;-47
2022/05/01 10:49:44;;;;;;;4.10;2.15;;;18.40;49.90;;;;;;5071397;28;20115;-47
2022/05/01 10:52:19;;;;;;;4.00;2.10;;;18.30;49.70;;;;;;5071355;28;20028;-47
2022/05/01 10:54:51;;;;;;;7.57;2.55;;;18.30;49.70;;;;;;5071261;28;20115;-47
2022/05/01 10:57:17;;;;;;;4.07;2.30;;;18.40;50.80;;;;;;5071215;28;20391;-48
2022/05/01 10:59:47;;;;;;;3.90;1.88;;;18.70;50.60;;;;;;5070996;28;20651;-47
2022/05/01 11:02:22;;;;;;;4.13;1.85;;;19.10;50.90;;;;;;5070370;28;20395;-48
2022/05/01 11:04:49;;;;;;;4.20;2.15;;;19.40;49.90;;;;;;5070376;28;20460;-46
2022/05/01 11:07:17;;;;;;;4.68;2.40;;;19.70;50.10;;;;;;5070590;28;20045;-47
2022/05/01 11:09:48;;;;;;;4.63;2.10;;;19.90;49.70;;;;;;5070702;28;20049;-46
2022/05/01 11:12:16;;;;;;;7.00;2.53;;;20.10;49.50;;;;;;5070619;28;20443;-47
2022/05/01 11:14:57;;;;;;;3.58;1.80;;;20.20;49.20;;;;;;5070417;28;20451;-47
2022/05/01 11:17:36;;;;;;;3.60;2.33;;;20.10;48.30;;;;;;5070759;28;20064;-47
2022/05/01 11:20:29;;;;;;;3.25;2.03;;;20.30;50.00;;;;;;5070648;28;20437;-46
2022/05/01 11:22:55;;;;;;;3.53;2.42;;;20.30;48.20;;;;;;5070843;28;20057;-48
2022/05/01 11:25:31;;;;;;;3.67;1.65;;;20.20;48.30;;;;;;5070489;28;20032;-48
2022/05/01 11:27:57;;;;;;;4.03;2.50;;;20.00;47.50;;;;;;5070614;28;20395;-47
2022/05/01 11:30:31;;;;;;;3.33;1.95;;;19.80;48.30;;;;;;5070135;28;20041;-47
2022/05/01 11:33:08;;;;;;;6.25;2.47;;;18.80;47.90;;;;;;5070178;28;20051;-47
2022/05/01 11:35:54;;;;;;;3.45;2.35;;;19.30;49.00;;;;;;5070209;28;20119;-47
2022/05/01 11:38:35;;;;;;;5.25;1.70;;;19.10;49.50;;;;;;5069950;28;20091;-47
2022/05/01 11:41:03;;;;;;;2.40;1.42;;;18.90;49.40;;;;;;5069921;28;20375;-48
2022/05/01 11:43:30;;;;;;;4.88;1.58;;;18.80;50.00;;;;;;5070184;28;20044;-47
2022/05/01 11:46:01;;;;;;;4.35;1.75;;;18.60;50.00;;;;;;5070284;28;20410;-46
2022/05/01 11:48:27;;;;;;;3.30;1.40;;;18.50;50.40;;;;;;5069491;28;20083;-48
2022/05/01 11:50:58;;;;;;;4.35;1.58;;;18.30;50.10;;;;;;5069715;28;20044;-46
2022/05/01 11:53:26;;;;;;;5.22;1.92;;;18.10;54.10;;;;;;5068796;28;20101;-46
2022/05/01 12:04:31;;;;;;;3.80;1.88;;;17.40;50.10;;;;;;5070372;28;20415;-47
2022/05/01 12:07:12;;;;;;;7.00;1.55;;;17.20;49.60;;;;;;5069982;28;21979;-47
2022/05/01 12:09:40;;;;;;;3.95;2.20;;;17.10;49.70;;;;;;5069352;28;20769;-46
2022/05/01 12:12:11;;;;;;;6.78;1.60;;;17.10;49.80;;;;;;5068558;28;20044;-46
2022/05/01 12:14:42;;;;;;;3.38;1.60;;;17.00;50.10;;;;;;5069631;28;20041;-49
2022/05/01 12:17:08;;;;;;;7.90;1.85;;;17.10;50.70;;;;;;5069703;28;20056;-46
2022/05/01 12:19:35;;;;;;;3.85;1.70;;;17.00;50.80;;;;;;5069597;28;20041;-47
2022/05/01 12:22:01;;;;;;;3.83;1.40;;;17.10;51.60;;;;;;5069523;28;20076;-46
2022/05/01 12:24:27;;;;;;;3.22;1.65;;;17.30;51.60;;;;;;5069461;28;20380;-49
2022/05/01 12:26:53;;;;;;;4.20;1.90;;;17.50;51.20;;;;;;5069619;28;20398;-50
2022/05/01 12:29:20;;;;;;;3.28;1.52;;;17.70;50.70;;;;;;5069438;28;20705;-49
2022/05/01 12:31:58;;;;;;;3.70;2.15;;;17.90;51.00;;;;;;5068761;28;20032;-47
2022/05/01 12:34:25;;;;;;;3.85;2.10;;;18.10;50.10;;;;;;5068884;28;20044;-47
2022/05/01 12:36:58;;;;;;;6.22;1.88;;;18.20;50.00;;;;;;5069399;28;20033;-46
2022/05/01 12:39:26;;;;;;;3.95;2.10;;;18.30;49.70;;;;;;5068625;28;20052;-47
2022/05/01 12:45:14;;;;;;;5.90;2.20;;;18.50;47.30;;;;;;5069213;28;20229;-46
2022/05/01 12:48:02;;;;;;;5.40;2.10;;;18.40;47.60;;;;;;5068165;28;20052;-47
2022/05/01 12:50:28;;;;;;;5.25;2.00;;;18.40;48.00;;;;;;5068850;28;20649;-48
2022/05/01 12:52:59;;;;;;;2.95;1.55;;;18.40;48.40;;;;;;5069260;28;20799;-48
2022/05/01 12:55:35;;;;;;;2.88;1.83;;;18.50;49.00;;;;;;5067419;28;20128;-46
2022/05/01 12:58:06;;;;;;;3.65;1.60;;;18.60;48.50;;;;;;5069171;28;20395;-47
2022/05/01 13:00:37;;;;;;;3.88;1.50;;;18.70;49.10;;;;;;5068786;28;20048;-50
2022/05/01 13:03:12;;;;;;;2.90;1.45;;;18.80;49.00;;;;;;5068800;28;20460;-45
2022/05/01 13:05:38;;;;;;;5.03;1.75;;;18.80;48.90;;;;;;5066940;28;20681;-46
2022/05/01 13:08:18;;;;;;;3.08;1.90;;;18.70;48.70;;;;;;5068470;28;20079;-46
2022/05/01 13:11:04;;;;;;;4.63;1.60;;;18.60;48.20;;;;;;5068630;28;20866;-45
2022/05/01 13:13:40;;;;;;;5.00;1.85;;;18.50;49.40;;;;;;5067700;28;20036;-47
2022/05/01 13:16:06;;;;;;;3.28;1.45;;;18.50;50.00;;;;;;5068962;28;20071;-48
2022/05/01 13:18:32;;;;;;;4.93;2.17;;;18.40;50.00;;;;;;5069444;28;20082;-45
2022/05/01 13:20:57;;;;;;;5.20;2.10;;;18.50;49.50;;;;;;5069275;28;20475;-47
2022/05/01 13:23:23;;;;;;;7.22;2.00;;;18.40;49.80;;;;;;5069167;28;20051;-44